createdAt,value
2019-04-07T00:00:06.180Z,7.07
2019-04-07T00:05:14.675Z,8.90
2019-04-07T00:10:20.388Z,7.83
2019-04-07T00:15:24.624Z,8.17
2019-04-07T00:20:29.868Z,7.33
2019-04-07T00:25:34.233Z,8.43
2019-04-07T00:30:38.604Z,7.20
2019-04-07T00:35:42.741Z,9.13
2019-04-07T00:40:46.901Z,5.80
2019-04-07T00:45:51.034Z,6.97
2019-04-07T00:50:55.904Z,8.17
2019-04-07T00:56:00.408Z,8.20
2019-04-07T01:01:07.404Z,6.77
2019-04-07T01:06:14.061Z,6.53
2019-04-07T01:11:20.068Z,8.03
2019-04-07T01:16:25.171Z,6.83
2019-04-07T01:21:31.471Z,10.27
2019-04-07T01:26:36.037Z,8.27
2019-04-07T01:31:40.459Z,7.60
2019-04-07T01:36:44.605Z,7.17
2019-04-07T01:41:57.178Z,6.30
2019-04-07T01:47:36.989Z,8.27
2019-04-07T01:52:49.241Z,5.63
2019-04-07T01:58:03.128Z,6.70
2019-04-07T02:03:28.278Z,6.80
2019-04-07T02:08:51.739Z,8.00
2019-04-07T02:14:05.083Z,7.70
2019-04-07T02:19:18.982Z,8.57
2019-04-07T02:24:41.099Z,6.87
2019-04-07T02:29:55.628Z,6.63
2019-04-07T02:35:24.639Z,8.07
2019-04-07T02:40:48.834Z,7.53
2019-04-07T02:46:21.930Z,6.87
2019-04-07T02:51:35.179Z,6.27
2019-04-07T02:56:52.439Z,6.87
2019-04-07T03:02:03.571Z,8.57
2019-04-07T03:07:36.155Z,7.20
2019-04-07T03:12:58.805Z,7.30
2019-04-07T03:18:31.637Z,7.73
2019-04-07T03:23:44.009Z,8.03
2019-04-07T03:29:09.772Z,7.43
2019-04-07T03:34:42.150Z,8.13
2019-04-07T03:40:14.565Z,6.63
2019-04-07T03:45:30.585Z,9.23
2019-04-07T03:51:04.382Z,6.27
2019-04-07T03:56:29.404Z,6.33
2019-04-07T04:01:55.973Z,6.80
2019-04-07T04:07:29.189Z,7.63
2019-04-07T04:12:38.862Z,7.50
2019-04-07T04:17:43.001Z,7.53
2019-04-07T04:22:47.344Z,7.97
2019-04-07T04:27:52.997Z,8.73
2019-04-07T04:32:57.940Z,6.83
2019-04-07T04:38:02.447Z,6.03
2019-04-07T04:43:06.695Z,4.83
2019-04-07T04:48:11.879Z,6.87
2019-04-07T04:53:17.046Z,7.80
2019-04-07T04:58:22.891Z,8.90
2019-04-07T05:03:27.282Z,6.50
2019-04-07T05:08:32.366Z,6.60
2019-04-07T05:13:37.194Z,6.97
2019-04-07T05:18:44.031Z,7.30
2019-04-07T05:23:48.783Z,6.67
2019-04-07T05:28:53.844Z,6.20
2019-04-07T05:34:00.370Z,11.10
2019-04-07T05:39:06.569Z,11.77
2019-04-07T05:44:11.380Z,11.90
2019-04-07T05:49:17.736Z,10.13
2019-04-07T05:54:22.717Z,10.40
2019-04-07T05:59:27.638Z,10.30
2019-04-07T06:04:32.104Z,7.87
2019-04-07T06:09:37.669Z,9.03
2019-04-07T06:14:43.836Z,10.17
2019-04-07T06:19:51.352Z,10.07
2019-04-07T06:24:56.025Z,11.97
2019-04-07T06:30:04.718Z,12.13
2019-04-07T06:35:12.323Z,11.60
2019-04-07T06:40:15.493Z,12.70
2019-04-07T06:45:23.655Z,13.77
2019-04-07T06:50:50.233Z,12.40
2019-04-07T06:56:21.148Z,12.60
2019-04-07T07:01:47.679Z,13.13
2019-04-07T07:07:08.941Z,14.30
2019-04-07T07:12:38.719Z,12.10
2019-04-07T07:18:02.461Z,11.67
2019-04-07T07:23:19.331Z,12.10
2019-04-07T07:28:28.145Z,12.20
2019-04-07T07:33:33.565Z,12.00
2019-04-07T07:38:39.736Z,11.47
2019-04-07T07:43:44.750Z,11.27
2019-04-07T07:48:48.928Z,11.00
2019-04-07T07:53:56.586Z,11.50
2019-04-07T07:59:00.218Z,9.93
2019-04-07T08:04:08.636Z,9.53
2019-04-07T08:09:16.441Z,10.63
2019-04-07T08:14:20.097Z,9.27
2019-04-07T08:19:28.981Z,9.03
2019-04-07T08:24:30.459Z,12.87
2019-04-07T08:29:37.083Z,10.20
2019-04-07T08:34:41.546Z,9.00
2019-04-07T08:39:47.562Z,8.03
2019-04-07T08:44:52.469Z,6.27
2019-04-07T08:49:57.773Z,7.93
2019-04-07T08:55:03.045Z,6.00
2019-04-07T09:00:13.156Z,5.93
2019-04-07T09:05:16.280Z,5.97
2019-04-07T09:10:28.032Z,5.00
2019-04-07T09:15:53.478Z,6.37
2019-04-07T09:21:18.321Z,6.70
2019-04-07T09:26:30.684Z,4.80
2019-04-07T09:31:50.916Z,4.80
2019-04-07T09:37:18.580Z,3.63
2019-04-07T09:42:39.026Z,2.80
2019-04-07T09:48:12.332Z,5.90
2019-04-07T09:53:32.210Z,3.90
2019-04-07T09:58:46.965Z,3.40
2019-04-07T10:03:59.572Z,3.13
2019-04-07T10:09:33.704Z,3.37
2019-04-07T10:15:15.403Z,3.13
2019-04-07T10:20:31.512Z,2.43
2019-04-07T16:12:59.316Z,3.63
2019-04-07T16:18:05.445Z,3.90
2019-04-07T16:23:10.218Z,4.10
2019-04-07T16:28:18.654Z,3.83
2019-04-07T16:33:23.114Z,3.47
2019-04-07T16:38:30.359Z,3.67
2019-04-07T16:43:37.567Z,3.77
2019-04-07T16:48:43.584Z,3.50
2019-04-07T16:53:47.968Z,3.77
2019-04-07T16:58:53.935Z,4.00
2019-04-07T17:43:28.129Z,3.77
2019-04-07T17:48:40.999Z,3.60
2019-04-07T17:53:56.942Z,5.03
2019-04-07T17:59:15.317Z,4.40
2019-04-07T18:04:57.072Z,4.60
2019-04-07T18:10:22.647Z,3.40
2019-04-07T18:15:49.928Z,4.20
2019-04-07T18:21:02.676Z,3.30
2019-04-07T18:26:17.204Z,3.97
2019-04-07T18:31:41.889Z,3.40
2019-04-07T18:37:07.143Z,4.13
2019-04-07T18:42:46.731Z,4.73
2019-04-07T18:48:20.030Z,4.13
2019-04-07T18:53:48.636Z,4.13
2019-04-07T18:59:18.197Z,4.90
2019-04-07T19:04:33.305Z,4.13
2019-04-07T19:09:47.660Z,4.33
2019-04-07T19:15:11.627Z,4.30
2019-04-07T19:20:37.402Z,4.47
2019-04-07T19:25:58.837Z,4.77
2019-04-07T19:31:35.160Z,4.93
2019-04-07T19:36:57.252Z,4.03
2019-04-07T19:42:21.818Z,4.37
2019-04-07T19:58:48.560Z,4.20
2019-04-07T20:04:13.147Z,4.23
2019-04-07T20:09:44.373Z,4.57
2019-04-07T20:15:13.554Z,5.77
2019-04-07T20:20:55.077Z,4.83
2019-04-07T20:26:36.991Z,4.43
2019-04-07T20:32:09.665Z,4.60
2019-04-07T20:37:31.141Z,4.47
2019-04-07T20:42:51.833Z,4.63
2019-04-07T20:48:08.286Z,4.90
2019-04-07T20:53:39.520Z,5.00
2019-04-07T20:59:13.951Z,4.67
2019-04-07T21:04:49.936Z,4.37
2019-04-07T21:10:12.811Z,4.63
2019-04-07T21:15:39.953Z,3.77
2019-04-07T21:21:02.188Z,8.73
2019-04-07T21:26:41.031Z,4.57
2019-04-07T21:32:09.821Z,4.67
2019-04-07T21:37:40.702Z,7.67
2019-04-07T21:43:09.880Z,4.17
2019-04-07T21:48:28.591Z,4.17
2019-04-07T21:53:40.967Z,5.87
2019-04-07T21:59:10.975Z,4.30
2019-04-07T22:04:34.047Z,4.33
2019-04-07T22:09:57.422Z,4.80
2019-04-07T22:15:02.443Z,5.00
2019-04-07T22:20:08.424Z,4.43
2019-04-07T22:25:15.309Z,5.37
2019-04-07T22:30:19.611Z,4.47
2019-04-07T22:35:25.022Z,4.87
2019-04-07T22:40:33.081Z,5.27
2019-04-07T22:45:39.085Z,5.50
2019-04-07T22:50:43.504Z,5.90
2019-04-07T22:55:48.554Z,5.40
2019-04-07T23:00:54.086Z,5.17
2019-04-07T23:05:58.810Z,5.13
2019-04-07T23:11:04.303Z,5.73
2019-04-07T23:16:13.897Z,5.43
2019-04-07T23:21:17.245Z,5.53
2019-04-07T23:26:22.252Z,4.87
2019-04-07T23:31:27.816Z,4.73
2019-04-07T23:36:34.111Z,5.20
2019-04-07T23:41:39.435Z,5.43
2019-04-07T23:46:47.707Z,5.90
2019-04-07T23:51:52.045Z,5.57
2019-04-07T23:56:56.273Z,5.40
